Terminal Aerodrome Forecast
Issued by NWS Riverton, WY

Home | Current Version | Previous Version | Text Only | Print | Product List | Glossary On
Versions: 1 2 3 4 5 6 7 8 9 10 11 12 13 14 15 16 17 18
418
FTUS45 KRIW 161723
TAFRIW
TAF
KRIW 161723Z 1618/1718 34009KT 1SM -SN SCT004 OVC012
     FM162000 02015G25KT 4SM -SN SCT008 OVC020
     FM170300 01011KT 6SM -SN OVC025
     FM170900 31007KT P6SM SCT025 BKN040
     FM171700 31007KT P6SM FEW100=

USA.gov is the U.S. government's official web portal to all federal, state and local government web resources and services.